createdAt,value
2023-04-20T00:02:20.839Z,7.35
2023-04-20T00:04:46.909Z,4.55
2023-04-20T00:07:12.714Z,6.30
2023-04-20T00:09:38.526Z,7.30
2023-04-20T00:12:04.718Z,6.38
2023-04-20T00:14:30.570Z,7.10
2023-04-20T00:16:56.437Z,4.78
2023-04-20T00:19:22.529Z,7.85
2023-04-20T00:21:48.563Z,9.30
2023-04-20T00:24:14.421Z,8.50
2023-04-20T00:26:40.352Z,8.35
2023-04-20T00:29:06.144Z,7.50
2023-04-20T00:31:32.186Z,13.85
2023-04-20T00:33:58.001Z,7.15
2023-04-20T00:36:23.754Z,8.13
2023-04-20T00:38:49.598Z,6.65
2023-04-20T00:41:15.671Z,5.53
2023-04-20T00:43:52.211Z,7.22
2023-04-20T00:46:19.271Z,11.18
2023-04-20T00:48:45.695Z,8.85
2023-04-20T00:51:12.362Z,9.98
2023-04-20T00:53:38.452Z,6.57
2023-04-20T00:56:05.737Z,5.95
2023-04-20T00:58:31.584Z,5.03
2023-04-20T01:00:57.363Z,5.50
2023-04-20T01:03:23.360Z,6.57
2023-04-20T01:05:49.619Z,7.93
2023-04-20T01:08:15.443Z,10.48
2023-04-20T01:10:41.313Z,6.30
2023-04-20T01:13:07.108Z,4.80
2023-04-20T01:15:34.518Z,8.60
2023-04-20T01:18:00.364Z,6.00
2023-04-20T01:20:26.166Z,8.02
2023-04-20T01:22:54.968Z,9.18
2023-04-20T01:25:21.326Z,6.63
2023-04-20T01:27:47.888Z,8.13
2023-04-20T01:30:14.473Z,6.15
2023-04-20T01:32:40.645Z,9.85
2023-04-20T01:35:08.030Z,8.52
2023-04-20T01:37:34.085Z,6.38
2023-04-20T01:40:00.264Z,5.35
2023-04-20T01:42:26.281Z,10.13
2023-04-20T01:44:52.112Z,9.25
2023-04-20T01:47:18.384Z,6.93
2023-04-20T01:49:44.474Z,7.25
2023-04-20T01:52:10.220Z,6.50
2023-04-20T01:54:36.767Z,7.38
2023-04-20T01:57:03.117Z,7.13
2023-04-20T01:59:29.092Z,7.93
2023-04-20T02:01:55.047Z,6.47
2023-04-20T02:04:20.985Z,11.48
2023-04-20T02:06:46.960Z,7.32
2023-04-20T02:09:12.823Z,9.10
2023-04-20T02:11:41.535Z,9.05
2023-04-20T02:14:07.349Z,7.90
2023-04-20T02:16:33.160Z,7.90
2023-04-20T02:18:59.032Z,8.85
2023-04-20T02:21:25.030Z,6.05
2023-04-20T02:23:50.785Z,8.80
2023-04-20T02:26:16.541Z,5.43
2023-04-20T02:28:42.393Z,6.78
2023-04-20T02:31:08.574Z,4.72
2023-04-20T02:33:34.408Z,9.68
2023-04-20T02:36:00.251Z,7.25
2023-04-20T02:38:26.437Z,7.00
2023-04-20T02:40:52.575Z,7.57
2023-04-20T02:43:18.422Z,7.30
2023-04-20T02:45:44.170Z,14.80
2023-04-20T02:48:10.030Z,4.95
2023-04-20T02:50:37.260Z,6.63
2023-04-20T02:53:03.572Z,7.53
2023-04-20T02:55:29.457Z,6.10
2023-04-20T02:57:55.263Z,6.68
2023-04-20T03:00:21.136Z,8.00
2023-04-20T03:02:47.309Z,6.78
2023-04-20T03:05:13.338Z,7.75
2023-04-20T03:07:39.094Z,5.80
2023-04-20T03:10:05.634Z,8.68
2023-04-20T03:12:31.399Z,6.43
2023-04-20T03:14:57.357Z,7.60
2023-04-20T03:17:23.277Z,14.45
2023-04-20T03:19:49.742Z,12.77
2023-04-20T03:22:18.481Z,16.25
2023-04-20T03:24:44.720Z,6.20
2023-04-20T03:27:10.530Z,14.77
2023-04-20T03:29:36.277Z,7.82
2023-04-20T03:32:02.874Z,8.50
2023-04-20T03:34:28.722Z,10.50
2023-04-20T03:36:54.491Z,9.35
2023-04-20T03:39:20.417Z,9.10
2023-04-20T03:41:46.412Z,9.90
2023-04-20T03:44:13.420Z,9.05
2023-04-20T03:46:39.193Z,10.98
2023-04-20T03:49:05.083Z,8.60
2023-04-20T03:51:31.633Z,9.20
2023-04-20T03:53:57.390Z,10.48
2023-04-20T03:56:23.313Z,9.73
2023-04-20T03:58:49.207Z,10.63
2023-04-20T04:01:15.282Z,6.75
2023-04-20T04:03:41.412Z,8.85
2023-04-20T04:06:08.446Z,9.32
2023-04-20T04:08:34.198Z,10.27
2023-04-20T04:10:59.991Z,10.63
2023-04-20T04:13:26.123Z,9.60
2023-04-20T04:15:52.101Z,8.68
2023-04-20T04:18:17.967Z,10.73
2023-04-20T04:20:43.867Z,9.10
2023-04-20T04:23:09.724Z,13.02
2023-04-20T04:25:39.692Z,7.82
2023-04-20T04:28:06.566Z,8.25
2023-04-20T04:30:32.686Z,8.07
2023-04-20T04:32:59.041Z,7.65
2023-04-20T04:35:25.927Z,9.18
2023-04-20T04:37:54.653Z,7.65
2023-04-20T04:40:20.581Z,9.68
2023-04-20T04:42:46.933Z,8.50
2023-04-20T04:45:12.867Z,11.80
2023-04-20T04:47:40.509Z,13.02
2023-04-20T04:50:08.558Z,7.70
2023-04-20T04:52:34.634Z,9.20
2023-04-20T04:55:00.538Z,11.95
2023-04-20T04:57:26.600Z,10.02
2023-04-20T04:59:53.074Z,9.80
2023-04-20T05:02:19.172Z,6.75
2023-04-20T05:04:46.115Z,7.78
2023-04-20T05:07:13.407Z,6.57
2023-04-20T05:09:39.514Z,7.00
2023-04-20T05:12:06.110Z,9.65
2023-04-20T05:14:32.774Z,8.07
2023-04-20T05:16:59.702Z,6.43
2023-04-20T05:19:25.549Z,7.50
2023-04-20T05:21:51.393Z,8.65
2023-04-20T05:24:18.799Z,6.13
2023-04-20T05:26:45.419Z,7.95
2023-04-20T05:29:11.621Z,7.82
2023-04-20T05:31:37.818Z,6.00
2023-04-20T05:34:03.676Z,6.32
2023-04-20T05:36:30.183Z,5.85
2023-04-20T05:38:56.265Z,6.88
2023-04-20T05:41:26.668Z,6.15
2023-04-20T05:43:53.732Z,5.72
2023-04-20T05:46:20.156Z,5.50
2023-04-20T05:48:46.083Z,6.03
2023-04-20T05:51:12.370Z,5.15
2023-04-20T05:53:38.354Z,5.40
2023-04-20T05:56:07.154Z,5.25
2023-04-20T05:58:34.695Z,4.70
2023-04-20T06:01:02.450Z,4.88
2023-04-20T06:03:28.600Z,4.40
2023-04-20T06:05:54.574Z,6.10
2023-04-20T06:08:20.443Z,4.22
2023-04-20T06:10:46.307Z,5.00
2023-04-20T06:13:12.131Z,6.03
2023-04-20T06:15:37.961Z,4.50
2023-04-20T06:18:04.284Z,5.15
2023-04-20T06:20:30.372Z,4.80
2023-04-20T06:22:56.249Z,4.80
2023-04-20T06:25:22.088Z,5.78
2023-04-20T06:27:48.490Z,5.10
2023-04-20T06:30:15.597Z,4.80
2023-04-20T06:32:41.624Z,5.15
2023-04-20T06:35:07.889Z,5.13
2023-04-20T06:37:37.191Z,5.32
2023-04-20T06:40:10.159Z,4.78
2023-04-20T06:42:36.651Z,5.82
2023-04-20T06:45:03.508Z,4.95
2023-04-20T06:47:32.968Z,5.53
2023-04-20T06:50:00.638Z,4.85
2023-04-20T06:52:27.347Z,6.05
2023-04-20T06:54:53.396Z,5.20
2023-04-20T06:57:19.401Z,5.28
2023-04-20T06:59:45.376Z,5.10
2023-04-20T07:02:11.338Z,4.80
2023-04-20T07:04:37.218Z,5.75
2023-04-20T07:07:03.167Z,5.72
2023-04-20T07:09:29.004Z,5.75
2023-04-20T07:11:55.602Z,5.82
2023-04-20T07:14:21.463Z,5.13
2023-04-20T07:16:47.327Z,5.85
2023-04-20T07:19:13.179Z,5.78
2023-04-20T07:21:38.956Z,5.55
2023-04-20T07:24:05.224Z,6.32
2023-04-20T07:26:31.005Z,6.38
2023-04-20T07:28:56.783Z,6.72
2023-04-20T07:31:22.656Z,6.85
2023-04-20T07:33:48.454Z,6.05
2023-04-20T07:36:14.355Z,6.55
2023-04-20T07:38:40.321Z,5.28
2023-04-20T07:41:09.449Z,5.43
2023-04-20T07:43:35.290Z,6.10
2023-04-20T07:46:01.106Z,6.68
2023-04-20T07:48:26.935Z,6.53
2023-04-20T07:50:52.877Z,5.82
2023-04-20T07:53:18.697Z,5.20
2023-04-20T07:55:44.471Z,5.07
2023-04-20T07:58:11.346Z,5.97
2023-04-20T08:00:37.251Z,4.68
2023-04-20T08:03:04.401Z,5.68
2023-04-20T08:05:30.908Z,6.07
2023-04-20T08:07:58.105Z,5.95
2023-04-20T08:10:24.068Z,5.10
2023-04-20T08:12:52.593Z,6.65
2023-04-20T08:15:18.680Z,5.63
2023-04-20T08:17:44.628Z,5.93
2023-04-20T08:20:10.696Z,5.53
2023-04-20T08:22:37.785Z,5.70
2023-04-20T08:25:04.054Z,5.00
2023-04-20T08:27:30.356Z,6.55
2023-04-20T08:29:56.398Z,5.70
2023-04-20T08:32:24.519Z,5.90
2023-04-20T08:34:50.433Z,5.32
2023-04-20T08:37:16.323Z,5.97
2023-04-20T08:39:42.078Z,5.85
2023-04-20T08:42:07.954Z,5.07
2023-04-20T08:44:33.760Z,4.32
2023-04-20T08:47:00.000Z,7.15
2023-04-20T08:49:31.118Z,5.00
2023-04-20T08:51:56.875Z,5.95
2023-04-20T08:54:24.757Z,4.35
2023-04-20T08:56:50.870Z,8.60
2023-04-20T08:59:16.709Z,4.70
2023-04-20T09:01:44.072Z,5.05
2023-04-20T09:04:26.344Z,4.80
2023-04-20T09:06:54.983Z,5.10
2023-04-20T09:09:24.845Z,4.15
2023-04-20T09:12:09.569Z,6.07
2023-04-20T09:14:46.758Z,4.53
2023-04-20T09:17:14.625Z,2.95
2023-04-20T09:19:43.464Z,3.05
2023-04-20T09:22:09.535Z,2.75
2023-04-20T09:24:37.316Z,2.70
2023-04-20T09:27:14.982Z,2.58
2023-04-20T09:29:41.011Z,3.25
2023-04-20T09:32:06.781Z,3.30
2023-04-20T09:34:45.715Z,2.70
2023-04-20T09:37:15.872Z,2.78
2023-04-20T09:39:43.624Z,2.95
2023-04-20T09:42:12.266Z,3.67
2023-04-20T09:44:38.856Z,2.65
2023-04-20T09:47:05.910Z,2.53
2023-04-20T09:49:31.938Z,2.67
2023-04-20T09:52:00.952Z,3.25
2023-04-20T09:54:28.140Z,2.10
2023-04-20T09:56:54.356Z,1.00
2023-04-20T09:59:20.891Z,0.65
2023-04-20T10:01:47.373Z,0.80
2023-04-20T10:04:13.762Z,1.63
2023-04-20T10:06:52.029Z,2.35
2023-04-20T10:09:25.515Z,1.55
2023-04-20T10:11:54.639Z,1.80
2023-04-20T10:14:25.395Z,1.08
2023-04-20T10:16:58.742Z,1.33
2023-04-20T10:19:35.090Z,0.98
2023-04-20T10:22:01.778Z,0.80
2023-04-20T10:24:29.530Z,1.45
2023-04-20T10:26:56.094Z,1.05
2023-04-20T10:29:26.576Z,1.00
2023-04-20T10:31:53.588Z,1.00
2023-04-20T10:34:32.522Z,1.33
2023-04-20T10:37:09.193Z,1.00
2023-04-20T10:39:37.003Z,1.38
2023-04-20T10:42:03.358Z,1.20
2023-04-20T10:44:30.269Z,2.78
2023-04-20T10:46:56.529Z,1.20
2023-04-20T10:49:26.727Z,1.52
2023-04-20T10:51:56.935Z,1.90
2023-04-20T10:54:22.828Z,2.63
2023-04-20T10:56:51.126Z,3.40
2023-04-20T10:59:19.486Z,2.10
2023-04-20T11:01:46.321Z,2.00
2023-04-20T11:04:12.720Z,1.73
2023-04-20T11:06:44.040Z,2.00
2023-04-20T11:09:25.873Z,2.30
2023-04-20T11:11:59.466Z,2.00
2023-04-20T11:14:25.456Z,2.80
2023-04-20T11:16:52.590Z,1.98
2023-04-20T11:19:32.154Z,2.88
2023-04-20T11:21:58.627Z,2.97
2023-04-20T11:24:29.983Z,2.47
2023-04-20T11:26:57.367Z,3.70
2023-04-20T11:29:41.287Z,5.30
2023-04-20T11:32:11.113Z,4.40
2023-04-20T11:34:38.874Z,5.28
2023-04-20T11:37:09.364Z,5.18
2023-04-20T11:39:36.290Z,4.68
2023-04-20T11:42:02.909Z,4.72
2023-04-20T11:44:28.843Z,4.80
2023-04-20T11:46:58.008Z,6.10
2023-04-20T11:49:26.285Z,4.95
2023-04-20T11:51:55.212Z,5.38
2023-04-20T11:54:24.710Z,8.68
2023-04-20T11:56:50.758Z,5.70
2023-04-20T11:59:19.095Z,8.45
2023-04-20T12:01:45.253Z,5.93
2023-04-20T12:04:11.246Z,6.32
2023-04-20T12:06:37.152Z,5.93
2023-04-20T12:09:05.446Z,6.28
2023-04-20T12:11:31.576Z,5.65
2023-04-20T12:13:57.784Z,5.18
2023-04-20T12:16:23.588Z,5.35
2023-04-20T12:18:49.520Z,8.25
2023-04-20T12:21:15.399Z,7.13
2023-04-20T12:23:42.045Z,7.18
2023-04-20T12:26:08.962Z,11.93
2023-04-20T12:28:34.765Z,6.18
2023-04-20T12:31:01.686Z,6.25
2023-04-20T12:33:27.561Z,5.63
2023-04-20T12:35:54.705Z,9.00
2023-04-20T12:38:20.500Z,6.57
2023-04-20T12:40:46.334Z,5.85
2023-04-20T12:43:12.083Z,7.65
2023-04-20T12:45:37.954Z,8.80
2023-04-20T12:48:04.182Z,7.68
2023-04-20T12:50:30.116Z,7.28
2023-04-20T12:52:57.613Z,7.65
2023-04-20T12:55:25.473Z,7.43
2023-04-20T12:57:51.443Z,7.53
2023-04-20T13:00:17.772Z,9.00
2023-04-20T13:02:43.771Z,6.82
2023-04-20T13:05:12.872Z,7.68
2023-04-20T13:07:38.666Z,9.15
2023-04-20T13:10:05.293Z,8.35
2023-04-20T13:12:31.117Z,5.97
2023-04-20T13:14:56.917Z,6.20
2023-04-20T13:17:22.813Z,7.43
2023-04-20T13:19:49.680Z,9.18
2023-04-20T13:22:18.680Z,7.85
2023-04-20T13:24:44.891Z,7.07
2023-04-20T13:27:11.019Z,7.88
2023-04-20T13:29:37.791Z,8.27
2023-04-20T13:32:04.049Z,6.82
2023-04-20T13:34:30.162Z,6.10
2023-04-20T13:36:57.542Z,8.27
2023-04-20T13:39:23.528Z,7.65
2023-04-20T13:41:49.374Z,6.40
2023-04-20T13:44:15.707Z,7.88
2023-04-20T13:46:43.409Z,5.75
2023-04-20T13:49:11.470Z,5.15
2023-04-20T13:51:39.871Z,5.70
2023-04-20T13:54:06.690Z,6.07
2023-04-20T13:56:35.327Z,5.38
2023-04-20T13:59:03.267Z,6.13
2023-04-20T14:01:30.339Z,7.57
2023-04-20T14:03:56.439Z,7.57
2023-04-20T14:06:22.381Z,6.20
2023-04-20T14:08:48.576Z,6.88
2023-04-20T14:11:14.604Z,5.25
2023-04-20T14:13:40.865Z,5.88
2023-04-20T14:16:11.800Z,5.22
2023-04-20T14:18:38.403Z,6.90
2023-04-20T14:21:04.497Z,5.85
2023-04-20T14:23:30.565Z,7.20
2023-04-20T14:25:57.239Z,6.10
2023-04-20T14:28:23.245Z,5.25
2023-04-20T14:30:50.678Z,5.82
2023-04-20T14:33:16.713Z,5.68
2023-04-20T14:35:42.853Z,5.72
2023-04-20T14:38:08.634Z,4.97
2023-04-20T14:40:34.609Z,7.38
2023-04-20T14:43:00.438Z,5.88
2023-04-20T14:45:26.224Z,5.57
2023-04-20T14:47:56.259Z,5.38
2023-04-20T14:50:31.085Z,4.88
2023-04-20T14:52:56.947Z,4.45
2023-04-20T14:55:24.866Z,4.82
2023-04-20T14:57:56.108Z,4.68
2023-04-20T15:00:27.426Z,5.63
2023-04-20T15:02:55.844Z,4.95
2023-04-20T15:05:24.382Z,5.43
2023-04-20T15:07:50.666Z,4.80
2023-04-20T15:10:20.423Z,5.82
2023-04-20T15:12:47.162Z,7.13
2023-04-20T15:15:13.588Z,6.72
2023-04-20T15:17:39.713Z,7.43
2023-04-20T15:20:06.918Z,6.50
2023-04-20T15:22:32.731Z,5.97
2023-04-20T15:24:58.559Z,6.22
2023-04-20T15:27:24.369Z,6.70
2023-04-20T15:29:50.382Z,6.28
2023-04-20T15:32:16.440Z,6.43
2023-04-20T15:34:42.340Z,6.78
2023-04-20T15:37:08.734Z,8.98
2023-04-20T15:39:34.620Z,6.43
2023-04-20T15:42:02.152Z,5.88
2023-04-20T15:44:28.806Z,7.00
2023-04-20T15:46:55.378Z,6.53
2023-04-20T15:49:21.300Z,5.72
2023-04-20T15:51:47.209Z,6.13
2023-04-20T15:54:13.498Z,5.60
2023-04-20T15:56:39.262Z,5.68
2023-04-20T15:59:05.111Z,5.22
2023-04-20T16:01:32.880Z,5.57
2023-04-20T16:03:59.306Z,6.95
2023-04-20T16:06:25.710Z,5.57
2023-04-20T16:08:53.269Z,6.55
2023-04-20T16:11:21.103Z,9.07
2023-04-20T16:13:46.935Z,6.45
2023-04-20T16:16:12.797Z,6.18
2023-04-20T16:18:38.756Z,5.80
2023-04-20T16:21:07.338Z,5.95
2023-04-20T16:23:33.178Z,5.43
2023-04-20T16:25:59.044Z,6.22
2023-04-20T16:28:25.672Z,6.97
2023-04-20T16:30:51.532Z,7.13
2023-04-20T16:33:17.885Z,6.88
2023-04-20T16:35:43.819Z,7.10
2023-04-20T16:38:10.782Z,6.57
2023-04-20T16:40:36.851Z,6.63
2023-04-20T16:43:03.214Z,7.55
2023-04-20T16:45:29.715Z,7.28
2023-04-20T16:47:57.357Z,6.68
2023-04-20T16:50:23.278Z,7.80
2023-04-20T16:52:49.383Z,7.93
2023-04-20T16:55:15.582Z,7.32
2023-04-20T16:57:41.619Z,7.13
2023-04-20T17:00:10.170Z,9.13
2023-04-20T17:02:36.724Z,8.40
2023-04-20T17:05:04.152Z,9.60
2023-04-20T17:07:30.106Z,8.43
2023-04-20T17:09:56.127Z,9.30
2023-04-20T17:12:22.149Z,7.85
2023-04-20T17:14:48.064Z,8.32
2023-04-20T17:17:14.016Z,8.95
2023-04-20T17:19:40.042Z,8.23
2023-04-20T17:22:06.688Z,9.27
2023-04-20T17:24:32.540Z,9.75
2023-04-20T17:26:58.639Z,10.02
2023-04-20T17:29:25.037Z,10.05
2023-04-20T17:31:51.139Z,9.02
2023-04-20T17:34:18.967Z,9.75
2023-04-20T17:36:46.086Z,9.57
2023-04-20T17:39:12.254Z,9.93
2023-04-20T17:41:38.404Z,9.30
2023-04-20T17:44:04.219Z,10.15
2023-04-20T17:46:31.264Z,10.43
2023-04-20T17:48:57.212Z,10.18
2023-04-20T17:51:23.076Z,9.88
2023-04-20T17:53:48.901Z,9.27
2023-04-20T17:56:14.769Z,9.95
2023-04-20T17:58:40.521Z,11.00
2023-04-20T18:01:07.371Z,10.20
2023-04-20T18:03:33.289Z,10.32
2023-04-20T18:05:59.224Z,10.50
2023-04-20T18:08:25.183Z,10.07
2023-04-20T18:10:51.037Z,11.30
2023-04-20T18:13:16.979Z,11.85
2023-04-20T18:15:43.131Z,10.77
2023-04-20T18:18:08.990Z,10.43
2023-04-20T18:20:34.894Z,10.95
2023-04-20T18:23:01.170Z,10.70
2023-04-20T18:25:27.046Z,10.13
2023-04-20T18:27:52.918Z,9.75
2023-04-20T18:30:18.706Z,9.77
2023-04-20T18:32:44.577Z,11.90
2023-04-20T18:35:10.549Z,10.40
2023-04-20T18:37:36.573Z,10.45
2023-04-20T18:40:05.393Z,11.38
2023-04-20T18:42:31.213Z,10.40
2023-04-20T18:44:57.164Z,10.73
2023-04-20T18:47:24.843Z,10.90
2023-04-20T18:49:50.774Z,11.77
2023-04-20T18:52:18.561Z,10.30
2023-04-20T18:54:45.649Z,10.05
2023-04-20T18:57:11.591Z,9.88
2023-04-20T18:59:37.435Z,9.75
2023-04-20T19:02:03.379Z,11.43
2023-04-20T19:04:29.443Z,10.70
2023-04-20T19:06:55.429Z,10.80
2023-04-20T19:09:21.297Z,10.45
2023-04-20T19:11:48.850Z,12.27
2023-04-20T19:14:14.818Z,11.05
2023-04-20T19:16:40.718Z,10.52
2023-04-20T19:19:07.073Z,10.73
2023-04-20T19:21:33.261Z,9.50
2023-04-20T19:23:59.190Z,10.00
2023-04-20T19:26:25.183Z,10.30
2023-04-20T19:28:51.180Z,10.75
2023-04-20T19:31:16.999Z,10.35
2023-04-20T19:33:42.813Z,10.20
2023-04-20T19:36:08.643Z,9.70
2023-04-20T19:38:36.684Z,10.52
2023-04-20T19:41:03.297Z,9.18
2023-04-20T19:43:31.174Z,10.43
2023-04-20T19:45:57.899Z,9.07
2023-04-20T19:48:24.309Z,9.35
2023-04-20T19:50:50.942Z,9.05
2023-04-20T19:53:18.471Z,10.80
2023-04-20T19:55:44.605Z,10.40
2023-04-20T19:58:10.674Z,9.20
2023-04-20T20:00:37.185Z,9.80
2023-04-20T20:03:07.060Z,9.63
2023-04-20T20:05:34.045Z,9.05
2023-04-20T20:08:00.049Z,9.63
2023-04-20T20:10:26.029Z,10.70
2023-04-20T20:12:51.905Z,10.20
2023-04-20T20:15:17.817Z,10.43
2023-04-20T20:17:45.890Z,10.07
2023-04-20T20:20:12.335Z,9.40
2023-04-20T20:22:38.181Z,9.95
2023-04-20T20:25:04.473Z,10.23
2023-04-20T20:27:30.420Z,10.82
2023-04-20T20:29:56.294Z,10.77
2023-04-20T20:32:22.190Z,10.68
2023-04-20T20:34:48.526Z,10.55
2023-04-20T20:37:15.747Z,12.35
2023-04-20T20:39:42.384Z,10.75
2023-04-20T20:42:09.595Z,10.55
2023-04-20T20:44:39.101Z,10.93
2023-04-20T20:47:05.970Z,11.50
2023-04-20T20:49:31.960Z,12.07
2023-04-20T20:51:57.871Z,11.75
2023-04-20T20:54:23.694Z,12.18
2023-04-20T20:56:49.670Z,12.43
2023-04-20T20:59:15.665Z,12.10
2023-04-20T21:01:41.640Z,13.23
2023-04-20T21:04:07.782Z,12.10
2023-04-20T21:06:33.762Z,12.82
2023-04-20T21:09:00.261Z,12.63
2023-04-20T21:11:26.083Z,12.95
2023-04-20T21:13:51.971Z,12.85
2023-04-20T21:16:17.768Z,13.20
2023-04-20T21:18:43.574Z,14.27
2023-04-20T21:21:12.782Z,13.63
2023-04-20T21:23:38.579Z,14.38
2023-04-20T21:26:06.249Z,14.45
2023-04-20T21:28:32.083Z,14.38
2023-04-20T21:30:57.904Z,14.38
2023-04-20T21:33:23.807Z,16.45
2023-04-20T21:35:49.610Z,15.57
2023-04-20T21:38:15.405Z,15.88
2023-04-20T21:40:41.223Z,15.60
2023-04-20T21:43:06.989Z,16.27
2023-04-20T21:45:32.794Z,15.02
2023-04-20T21:47:58.563Z,16.02
2023-04-20T21:50:26.321Z,16.08
2023-04-20T21:52:53.541Z,17.33
2023-04-20T21:55:19.914Z,16.05
2023-04-20T21:57:45.752Z,17.40
2023-04-20T22:00:11.905Z,17.00
2023-04-20T22:02:37.850Z,16.48
2023-04-20T22:05:04.633Z,15.90
2023-04-20T22:07:31.943Z,17.33
2023-04-20T22:10:00.026Z,17.35
2023-04-20T22:12:38.380Z,17.48
2023-04-20T22:15:10.281Z,16.08
2023-04-20T22:17:39.808Z,18.23
2023-04-20T22:20:08.650Z,17.42
2023-04-20T22:22:36.177Z,18.77
2023-04-20T22:25:03.696Z,19.80
2023-04-20T22:27:30.221Z,18.17
2023-04-20T22:29:56.217Z,22.20
2023-04-20T22:32:22.083Z,18.90
2023-04-20T22:34:47.998Z,19.50
2023-04-20T22:37:13.815Z,19.27
2023-04-20T22:39:39.567Z,20.20
2023-04-20T22:42:05.381Z,22.80
2023-04-20T22:44:31.156Z,22.67
2023-04-20T22:46:57.267Z,21.83
2023-04-20T22:49:29.565Z,20.70
2023-04-20T22:51:56.820Z,20.23
2023-04-20T22:54:25.661Z,22.75
2023-04-20T22:56:51.457Z,24.42
2023-04-20T22:59:17.361Z,24.02
2023-04-20T23:01:43.434Z,20.98
2023-04-20T23:04:09.435Z,22.50
2023-04-20T23:06:35.610Z,24.02
2023-04-20T23:09:03.432Z,23.27
2023-04-20T23:11:29.347Z,23.30
2023-04-20T23:13:55.260Z,24.15
2023-04-20T23:16:22.423Z,23.80
2023-04-20T23:18:48.384Z,26.73
2023-04-20T23:21:16.024Z,24.00
2023-04-20T23:23:41.875Z,26.92
2023-04-20T23:26:07.684Z,25.00
2023-04-20T23:28:33.514Z,24.52
2023-04-20T23:30:59.305Z,28.13
2023-04-20T23:33:25.053Z,24.52
2023-04-20T23:35:50.918Z,25.05
2023-04-20T23:38:17.523Z,24.35
2023-04-20T23:40:43.360Z,25.10
2023-04-20T23:43:09.163Z,25.52
2023-04-20T23:45:34.941Z,23.02
2023-04-20T23:48:00.847Z,22.58
2023-04-20T23:50:26.633Z,22.25
2023-04-20T23:52:52.467Z,23.70
2023-04-20T23:55:18.274Z,25.73
2023-04-20T23:57:46.056Z,25.30
